sensor_id;sensor_type;location;lat;lon;timestamp;P1;durP1;ratioP1;P2;durP2;ratioP2
21339;SDS011;10828;47.064;15.422;2023-10-13T00:01:44;10.83;;;4.53;;
21339;SDS011;10828;47.064;15.422;2023-10-13T00:04:12;8.70;;;4.00;;
21339;SDS011;10828;47.064;15.422;2023-10-13T00:06:37;14.00;;;4.33;;
21339;SDS011;10828;47.064;15.422;2023-10-13T00:09:03;10.63;;;4.10;;
21339;SDS011;10828;47.064;15.422;2023-10-13T00:11:29;12.70;;;4.10;;
21339;SDS011;10828;47.064;15.422;2023-10-13T00:13:55;16.03;;;4.13;;
21339;SDS011;10828;47.064;15.422;2023-10-13T00:16:21;11.27;;;4.63;;
21339;SDS011;10828;47.064;15.422;2023-10-13T00:18:51;11.53;;;3.77;;
21339;SDS011;10828;47.064;15.422;2023-10-13T00:21:23;14.07;;;5.23;;
21339;SDS011;10828;47.064;15.422;2023-10-13T00:24:00;13.63;;;4.73;;
21339;SDS011;10828;47.064;15.422;2023-10-13T00:26:31;15.10;;;5.17;;
21339;SDS011;10828;47.064;15.422;2023-10-13T00:29:01;18.80;;;9.40;;
21339;SDS011;10828;47.064;15.422;2023-10-13T00:31:38;13.40;;;6.30;;
21339;SDS011;10828;47.064;15.422;2023-10-13T00:34:08;11.53;;;5.20;;
21339;SDS011;10828;47.064;15.422;2023-10-13T00:36:43;13.97;;;5.33;;
21339;SDS011;10828;47.064;15.422;2023-10-13T00:39:35;15.97;;;6.03;;
21339;SDS011;10828;47.064;15.422;2023-10-13T00:42:22;14.73;;;6.07;;
21339;SDS011;10828;47.064;15.422;2023-10-13T00:45:13;16.33;;;5.90;;
21339;SDS011;10828;47.064;15.422;2023-10-13T00:47:42;21.97;;;5.90;;
21339;SDS011;10828;47.064;15.422;2023-10-13T00:50:16;18.57;;;6.13;;
21339;SDS011;10828;47.064;15.422;2023-10-13T00:52:43;11.40;;;5.07;;
21339;SDS011;10828;47.064;15.422;2023-10-13T00:55:12;12.67;;;4.93;;
21339;SDS011;10828;47.064;15.422;2023-10-13T00:57:39;15.10;;;5.73;;
21339;SDS011;10828;47.064;15.422;2023-10-13T01:00:06;16.03;;;5.77;;
21339;SDS011;10828;47.064;15.422;2023-10-13T01:02:58;20.83;;;6.00;;
21339;SDS011;10828;47.064;15.422;2023-10-13T01:05:31;14.70;;;6.80;;
21339;SDS011;10828;47.064;15.422;2023-10-13T01:08:01;16.50;;;6.37;;
21339;SDS011;10828;47.064;15.422;2023-10-13T01:10:28;14.37;;;6.23;;
21339;SDS011;10828;47.064;15.422;2023-10-13T01:12:57;15.63;;;6.23;;
21339;SDS011;10828;47.064;15.422;2023-10-13T01:15:24;17.83;;;6.60;;
21339;SDS011;10828;47.064;15.422;2023-10-13T01:17:54;21.23;;;6.40;;
21339;SDS011;10828;47.064;15.422;2023-10-13T01:20:37;22.63;;;7.03;;
21339;SDS011;10828;47.064;15.422;2023-10-13T01:23:11;17.23;;;6.50;;
21339;SDS011;10828;47.064;15.422;2023-10-13T01:25:49;16.70;;;6.47;;
21339;SDS011;10828;47.064;15.422;2023-10-13T01:28:15;23.07;;;7.10;;
21339;SDS011;10828;47.064;15.422;2023-10-13T01:30:44;16.00;;;6.67;;
21339;SDS011;10828;47.064;15.422;2023-10-13T01:33:17;20.97;;;6.87;;
21339;SDS011;10828;47.064;15.422;2023-10-13T01:35:51;17.53;;;6.63;;
21339;SDS011;10828;47.064;15.422;2023-10-13T01:38:18;18.50;;;5.80;;
21339;SDS011;10828;47.064;15.422;2023-10-13T01:40:44;16.87;;;6.90;;
21339;SDS011;10828;47.064;15.422;2023-10-13T01:43:09;22.23;;;5.80;;
21339;SDS011;10828;47.064;15.422;2023-10-13T01:45:40;12.37;;;5.87;;
21339;SDS011;10828;47.064;15.422;2023-10-13T01:48:14;13.10;;;6.03;;
21339;SDS011;10828;47.064;15.422;2023-10-13T01:50:43;17.47;;;6.93;;
21339;SDS011;10828;47.064;15.422;2023-10-13T01:53:13;14.90;;;6.40;;
21339;SDS011;10828;47.064;15.422;2023-10-13T01:55:44;20.87;;;7.60;;
21339;SDS011;10828;47.064;15.422;2023-10-13T01:58:13;17.07;;;5.93;;
21339;SDS011;10828;47.064;15.422;2023-10-13T02:00:43;18.97;;;6.37;;
21339;SDS011;10828;47.064;15.422;2023-10-13T02:03:11;16.83;;;5.80;;
21339;SDS011;10828;47.064;15.422;2023-10-13T02:05:44;16.23;;;6.80;;
21339;SDS011;10828;47.064;15.422;2023-10-13T02:08:17;15.23;;;6.43;;
21339;SDS011;10828;47.064;15.422;2023-10-13T02:10:50;17.03;;;6.70;;
21339;SDS011;10828;47.064;15.422;2023-10-13T02:13:17;19.83;;;6.53;;
21339;SDS011;10828;47.064;15.422;2023-10-13T02:15:44;14.60;;;6.27;;
21339;SDS011;10828;47.064;15.422;2023-10-13T02:18:15;13.07;;;5.83;;
21339;SDS011;10828;47.064;15.422;2023-10-13T02:21:03;17.93;;;6.40;;
21339;SDS011;10828;47.064;15.422;2023-10-13T02:23:37;11.40;;;5.43;;
21339;SDS011;10828;47.064;15.422;2023-10-13T02:26:13;19.97;;;5.97;;
21339;SDS011;10828;47.064;15.422;2023-10-13T02:28:59;15.77;;;5.83;;
21339;SDS011;10828;47.064;15.422;2023-10-13T02:31:38;16.33;;;6.23;;
21339;SDS011;10828;47.064;15.422;2023-10-13T02:34:06;18.53;;;6.60;;
21339;SDS011;10828;47.064;15.422;2023-10-13T02:36:34;15.93;;;6.20;;
21339;SDS011;10828;47.064;15.422;2023-10-13T02:39:04;19.53;;;5.87;;
21339;SDS011;10828;47.064;15.422;2023-10-13T02:41:33;16.93;;;5.70;;
21339;SDS011;10828;47.064;15.422;2023-10-13T02:44:03;16.07;;;5.83;;
21339;SDS011;10828;47.064;15.422;2023-10-13T02:46:35;15.33;;;6.73;;
21339;SDS011;10828;47.064;15.422;2023-10-13T02:49:05;17.23;;;6.50;;
21339;SDS011;10828;47.064;15.422;2023-10-13T02:51:38;24.73;;;7.43;;
21339;SDS011;10828;47.064;15.422;2023-10-13T02:54:07;21.00;;;7.07;;
21339;SDS011;10828;47.064;15.422;2023-10-13T02:56:36;21.33;;;7.20;;
21339;SDS011;10828;47.064;15.422;2023-10-13T02:59:03;18.50;;;6.63;;
21339;SDS011;10828;47.064;15.422;2023-10-13T03:01:33;22.00;;;7.13;;
21339;SDS011;10828;47.064;15.422;2023-10-13T03:03:59;16.33;;;7.10;;
21339;SDS011;10828;47.064;15.422;2023-10-13T03:06:26;16.97;;;6.37;;
21339;SDS011;10828;47.064;15.422;2023-10-13T03:09:03;15.07;;;6.60;;
21339;SDS011;10828;47.064;15.422;2023-10-13T03:11:40;17.30;;;6.70;;
21339;SDS011;10828;47.064;15.422;2023-10-13T03:14:08;18.27;;;6.80;;
21339;SDS011;10828;47.064;15.422;2023-10-13T03:16:45;16.30;;;6.67;;
21339;SDS011;10828;47.064;15.422;2023-10-13T03:19:10;19.60;;;6.97;;
21339;SDS011;10828;47.064;15.422;2023-10-13T03:21:36;14.80;;;6.07;;
21339;SDS011;10828;47.064;15.422;2023-10-13T03:24:01;13.53;;;6.37;;
21339;SDS011;10828;47.064;15.422;2023-10-13T03:26:31;16.80;;;6.60;;
21339;SDS011;10828;47.064;15.422;2023-10-13T03:29:02;19.37;;;7.33;;
21339;SDS011;10828;47.064;15.422;2023-10-13T03:31:33;15.77;;;6.23;;
21339;SDS011;10828;47.064;15.422;2023-10-13T03:34:02;16.30;;;6.70;;
21339;SDS011;10828;47.064;15.422;2023-10-13T03:36:30;14.27;;;6.30;;
21339;SDS011;10828;47.064;15.422;2023-10-13T03:39:14;16.33;;;6.23;;
21339;SDS011;10828;47.064;15.422;2023-10-13T03:41:40;12.93;;;6.00;;
21339;SDS011;10828;47.064;15.422;2023-10-13T03:44:06;15.13;;;6.30;;
21339;SDS011;10828;47.064;15.422;2023-10-13T03:46:44;16.73;;;6.20;;
21339;SDS011;10828;47.064;15.422;2023-10-13T03:49:13;18.63;;;6.50;;
21339;SDS011;10828;47.064;15.422;2023-10-13T03:51:46;17.73;;;6.20;;
21339;SDS011;10828;47.064;15.422;2023-10-13T03:54:13;13.30;;;5.83;;
21339;SDS011;10828;47.064;15.422;2023-10-13T03:56:42;12.57;;;5.60;;
21339;SDS011;10828;47.064;15.422;2023-10-13T03:59:09;18.67;;;6.60;;
21339;SDS011;10828;47.064;15.422;2023-10-13T04:01:45;15.50;;;6.60;;
21339;SDS011;10828;47.064;15.422;2023-10-13T04:04:13;14.27;;;6.10;;
21339;SDS011;10828;47.064;15.422;2023-10-13T04:07:00;18.50;;;6.20;;
21339;SDS011;10828;47.064;15.422;2023-10-13T04:09:32;14.13;;;6.60;;
21339;SDS011;10828;47.064;15.422;2023-10-13T04:12:08;17.77;;;6.70;;
21339;SDS011;10828;47.064;15.422;2023-10-13T04:14:40;13.33;;;6.03;;
21339;SDS011;10828;47.064;15.422;2023-10-13T04:17:27;18.73;;;6.37;;
21339;SDS011;10828;47.064;15.422;2023-10-13T04:20:00;21.27;;;8.20;;
21339;SDS011;10828;47.064;15.422;2023-10-13T04:25:19;17.97;;;6.47;;
21339;SDS011;10828;47.064;15.422;2023-10-13T04:28:07;22.00;;;7.77;;
21339;SDS011;10828;47.064;15.422;2023-10-13T04:30:56;28.87;;;10.13;;
21339;SDS011;10828;47.064;15.422;2023-10-13T04:36:19;23.37;;;7.73;;
21339;SDS011;10828;47.064;15.422;2023-10-13T04:39:04;26.67;;;7.53;;
21339;SDS011;10828;47.064;15.422;2023-10-13T04:41:38;22.27;;;7.60;;
21339;SDS011;10828;47.064;15.422;2023-10-13T04:44:13;23.73;;;7.80;;
21339;SDS011;10828;47.064;15.422;2023-10-13T04:46:54;15.73;;;7.83;;
21339;SDS011;10828;47.064;15.422;2023-10-13T04:49:39;18.07;;;7.90;;
21339;SDS011;10828;47.064;15.422;2023-10-13T04:52:08;17.83;;;7.47;;
21339;SDS011;10828;47.064;15.422;2023-10-13T04:54:34;17.03;;;7.37;;
21339;SDS011;10828;47.064;15.422;2023-10-13T04:57:13;18.90;;;7.70;;
21339;SDS011;10828;47.064;15.422;2023-10-13T05:00:00;18.87;;;7.53;;
21339;SDS011;10828;47.064;15.422;2023-10-13T05:02:46;24.17;;;7.13;;
21339;SDS011;10828;47.064;15.422;2023-10-13T05:05:31;21.17;;;6.77;;
21339;SDS011;10828;47.064;15.422;2023-10-13T05:08:15;18.27;;;7.20;;
21339;SDS011;10828;47.064;15.422;2023-10-13T05:11:16;18.30;;;7.27;;
21339;SDS011;10828;47.064;15.422;2023-10-13T05:20:55;19.53;;;7.00;;
21339;SDS011;10828;47.064;15.422;2023-10-13T05:24:31;30.03;;;8.40;;
21339;SDS011;10828;47.064;15.422;2023-10-13T05:28:11;16.27;;;6.43;;
21339;SDS011;10828;47.064;15.422;2023-10-13T06:35:53;20.00;;;6.80;;
21339;SDS011;10828;47.064;15.422;2023-10-13T06:47:04;16.80;;;6.53;;
21339;SDS011;10828;47.064;15.422;2023-10-13T06:49:32;19.63;;;7.20;;
21339;SDS011;10828;47.064;15.422;2023-10-13T06:52:10;19.20;;;6.77;;
21339;SDS011;10828;47.064;15.422;2023-10-13T06:54:37;22.43;;;6.77;;
21339;SDS011;10828;47.064;15.422;2023-10-13T06:57:04;23.97;;;7.10;;
21339;SDS011;10828;47.064;15.422;2023-10-13T06:59:35;19.50;;;7.10;;
21339;SDS011;10828;47.064;15.422;2023-10-13T07:02:04;17.77;;;6.30;;
21339;SDS011;10828;47.064;15.422;2023-10-13T07:04:31;20.53;;;6.83;;
21339;SDS011;10828;47.064;15.422;2023-10-13T07:06:57;18.53;;;6.63;;
21339;SDS011;10828;47.064;15.422;2023-10-13T07:09:25;24.40;;;7.57;;
21339;SDS011;10828;47.064;15.422;2023-10-13T07:12:13;24.07;;;7.20;;
21339;SDS011;10828;47.064;15.422;2023-10-13T07:14:46;20.60;;;7.60;;
21339;SDS011;10828;47.064;15.422;2023-10-13T07:17:20;18.90;;;6.13;;
21339;SDS011;10828;47.064;15.422;2023-10-13T07:19:52;20.20;;;7.17;;
21339;SDS011;10828;47.064;15.422;2023-10-13T07:22:18;21.40;;;7.00;;
21339;SDS011;10828;47.064;15.422;2023-10-13T07:24:44;17.17;;;6.70;;
21339;SDS011;10828;47.064;15.422;2023-10-13T07:27:14;19.43;;;7.53;;
21339;SDS011;10828;47.064;15.422;2023-10-13T07:29:52;18.63;;;6.83;;
21339;SDS011;10828;47.064;15.422;2023-10-13T07:32:40;28.87;;;8.60;;
21339;SDS011;10828;47.064;15.422;2023-10-13T07:35:10;15.93;;;7.20;;
21339;SDS011;10828;47.064;15.422;2023-10-13T07:37:41;19.03;;;7.13;;
21339;SDS011;10828;47.064;15.422;2023-10-13T07:40:12;16.97;;;6.00;;
21339;SDS011;10828;47.064;15.422;2023-10-13T07:42:49;24.83;;;7.20;;
21339;SDS011;10828;47.064;15.422;2023-10-13T07:45:16;19.40;;;6.80;;
21339;SDS011;10828;47.064;15.422;2023-10-13T07:47:58;21.73;;;6.83;;
21339;SDS011;10828;47.064;15.422;2023-10-13T07:50:25;19.47;;;6.00;;
21339;SDS011;10828;47.064;15.422;2023-10-13T07:52:51;18.03;;;6.37;;
21339;SDS011;10828;47.064;15.422;2023-10-13T07:55:24;18.67;;;6.03;;
21339;SDS011;10828;47.064;15.422;2023-10-13T07:57:50;15.03;;;6.30;;
21339;SDS011;10828;47.064;15.422;2023-10-13T08:00:24;16.70;;;6.80;;
21339;SDS011;10828;47.064;15.422;2023-10-13T08:03:00;20.57;;;5.90;;
21339;SDS011;10828;47.064;15.422;2023-10-13T08:05:45;17.20;;;6.53;;
21339;SDS011;10828;47.064;15.422;2023-10-13T08:08:24;28.70;;;7.20;;
21339;SDS011;10828;47.064;15.422;2023-10-13T08:11:16;18.00;;;6.13;;
21339;SDS011;10828;47.064;15.422;2023-10-13T08:13:51;21.90;;;7.40;;
21339;SDS011;10828;47.064;15.422;2023-10-13T08:16:39;26.57;;;6.97;;
21339;SDS011;10828;47.064;15.422;2023-10-13T08:19:23;17.80;;;6.30;;
21339;SDS011;10828;47.064;15.422;2023-10-13T08:21:57;18.37;;;6.10;;
21339;SDS011;10828;47.064;15.422;2023-10-13T08:24:28;21.20;;;6.67;;
21339;SDS011;10828;47.064;15.422;2023-10-13T08:27:14;16.23;;;5.97;;
21339;SDS011;10828;47.064;15.422;2023-10-13T08:30:00;22.23;;;6.37;;
21339;SDS011;10828;47.064;15.422;2023-10-13T08:32:27;15.83;;;6.77;;
21339;SDS011;10828;47.064;15.422;2023-10-13T08:34:54;16.87;;;5.97;;
21339;SDS011;10828;47.064;15.422;2023-10-13T08:37:21;18.30;;;6.37;;
21339;SDS011;10828;47.064;15.422;2023-10-13T08:39:47;20.30;;;6.33;;
21339;SDS011;10828;47.064;15.422;2023-10-13T08:42:27;14.53;;;5.30;;
21339;SDS011;10828;47.064;15.422;2023-10-13T08:45:20;14.53;;;5.03;;
21339;SDS011;10828;47.064;15.422;2023-10-13T08:47:49;15.47;;;5.50;;
21339;SDS011;10828;47.064;15.422;2023-10-13T08:50:22;14.77;;;6.10;;
21339;SDS011;10828;47.064;15.422;2023-10-13T08:53:09;18.27;;;5.73;;
21339;SDS011;10828;47.064;15.422;2023-10-13T08:55:53;22.60;;;5.73;;
21339;SDS011;10828;47.064;15.422;2023-10-13T08:58:41;18.23;;;6.23;;
21339;SDS011;10828;47.064;15.422;2023-10-13T09:01:28;13.90;;;5.73;;
21339;SDS011;10828;47.064;15.422;2023-10-13T09:04:25;11.90;;;5.00;;
21339;SDS011;10828;47.064;15.422;2023-10-13T09:06:57;17.03;;;5.10;;
21339;SDS011;10828;47.064;15.422;2023-10-13T09:09:25;17.47;;;6.03;;
21339;SDS011;10828;47.064;15.422;2023-10-13T09:12:01;13.67;;;5.20;;
21339;SDS011;10828;47.064;15.422;2023-10-13T09:14:36;17.77;;;5.20;;
21339;SDS011;10828;47.064;15.422;2023-10-13T09:17:09;14.63;;;5.57;;
21339;SDS011;10828;47.064;15.422;2023-10-13T09:20:02;14.83;;;5.20;;
21339;SDS011;10828;47.064;15.422;2023-10-13T09:22:56;20.13;;;5.77;;
21339;SDS011;10828;47.064;15.422;2023-10-13T09:25:28;17.00;;;5.47;;
21339;SDS011;10828;47.064;15.422;2023-10-13T09:27:59;12.00;;;5.40;;
21339;SDS011;10828;47.064;15.422;2023-10-13T09:30:28;13.63;;;5.43;;
21339;SDS011;10828;47.064;15.422;2023-10-13T09:33:03;17.67;;;5.50;;
21339;SDS011;10828;47.064;15.422;2023-10-13T09:35:30;12.57;;;5.17;;
21339;SDS011;10828;47.064;15.422;2023-10-13T09:37:59;16.37;;;5.20;;
21339;SDS011;10828;47.064;15.422;2023-10-13T09:40:29;18.40;;;5.00;;
21339;SDS011;10828;47.064;15.422;2023-10-13T09:43:11;23.57;;;5.40;;
21339;SDS011;10828;47.064;15.422;2023-10-13T09:45:46;11.53;;;4.77;;
21339;SDS011;10828;47.064;15.422;2023-10-13T09:48:32;12.80;;;5.43;;
21339;SDS011;10828;47.064;15.422;2023-10-13T09:51:06;18.00;;;4.80;;
21339;SDS011;10828;47.064;15.422;2023-10-13T09:53:38;23.40;;;5.13;;
21339;SDS011;10828;47.064;15.422;2023-10-13T09:58:55;20.03;;;4.83;;
21339;SDS011;10828;47.064;15.422;2023-10-13T10:01:33;12.13;;;4.73;;
21339;SDS011;10828;47.064;15.422;2023-10-13T10:04:06;21.23;;;5.00;;
21339;SDS011;10828;47.064;15.422;2023-10-13T10:07:03;16.97;;;5.37;;
21339;SDS011;10828;47.064;15.422;2023-10-13T10:09:29;16.60;;;5.07;;
21339;SDS011;10828;47.064;15.422;2023-10-13T10:18:19;16.27;;;4.50;;
21339;SDS011;10828;47.064;15.422;2023-10-13T10:20:51;12.03;;;4.57;;
21339;SDS011;10828;47.064;15.422;2023-10-13T10:23:34;17.13;;;5.10;;
21339;SDS011;10828;47.064;15.422;2023-10-13T10:26:14;16.33;;;5.13;;
21339;SDS011;10828;47.064;15.422;2023-10-13T10:28:45;14.00;;;4.73;;
21339;SDS011;10828;47.064;15.422;2023-10-13T10:31:11;16.07;;;4.73;;
21339;SDS011;10828;47.064;15.422;2023-10-13T10:33:38;12.70;;;4.33;;
21339;SDS011;10828;47.064;15.422;2023-10-13T10:36:05;16.37;;;4.87;;
21339;SDS011;10828;47.064;15.422;2023-10-13T10:38:32;20.93;;;4.43;;
21339;SDS011;10828;47.064;15.422;2023-10-13T10:41:00;16.20;;;4.57;;
21339;SDS011;10828;47.064;15.422;2023-10-13T10:46:17;12.80;;;3.73;;
21339;SDS011;10828;47.064;15.422;2023-10-13T10:48:51;12.83;;;4.40;;
21339;SDS011;10828;47.064;15.422;2023-10-13T10:51:28;15.47;;;4.23;;
21339;SDS011;10828;47.064;15.422;2023-10-13T10:53:59;11.27;;;3.87;;
21339;SDS011;10828;47.064;15.422;2023-10-13T10:56:37;14.13;;;4.10;;
21339;SDS011;10828;47.064;15.422;2023-10-13T10:59:06;16.60;;;6.03;;
21339;SDS011;10828;47.064;15.422;2023-10-13T11:01:43;11.60;;;4.20;;
21339;SDS011;10828;47.064;15.422;2023-10-13T11:04:13;17.00;;;4.40;;
21339;SDS011;10828;47.064;15.422;2023-10-13T11:06:45;8.77;;;3.63;;
21339;SDS011;10828;47.064;15.422;2023-10-13T11:12:19;12.07;;;3.70;;
21339;SDS011;10828;47.064;15.422;2023-10-13T11:15:03;10.95;;;3.58;;
21339;SDS011;10828;47.064;15.422;2023-10-13T11:17:54;10.93;;;3.07;;
21339;SDS011;10828;47.064;15.422;2023-10-13T11:20:22;9.27;;;3.17;;
21339;SDS011;10828;47.064;15.422;2023-10-13T11:22:53;9.20;;;3.10;;
21339;SDS011;10828;47.064;15.422;2023-10-13T11:25:24;9.32;;;3.20;;
21339;SDS011;10828;47.064;15.422;2023-10-13T11:28:14;9.13;;;3.10;;
21339;SDS011;10828;47.064;15.422;2023-10-13T11:30:55;10.15;;;3.10;;
21339;SDS011;10828;47.064;15.422;2023-10-13T11:33:28;7.87;;;2.70;;
21339;SDS011;10828;47.064;15.422;2023-10-13T11:35:56;12.80;;;3.70;;
21339;SDS011;10828;47.064;15.422;2023-10-13T11:41:03;11.98;;;3.10;;
21339;SDS011;10828;47.064;15.422;2023-10-13T11:43:32;13.32;;;2.40;;
21339;SDS011;10828;47.064;15.422;2023-10-13T11:46:43;7.22;;;2.80;;
21339;SDS011;10828;47.064;15.422;2023-10-13T12:01:05;8.57;;;3.28;;
21339;SDS011;10828;47.064;15.422;2023-10-13T12:03:41;15.38;;;3.17;;
21339;SDS011;10828;47.064;15.422;2023-10-13T12:10:02;22.52;;;2.72;;
21339;SDS011;10828;47.064;15.422;2023-10-13T13:33:12;8.07;;;3.15;;
21339;SDS011;10828;47.064;15.422;2023-10-13T13:35:41;11.68;;;3.20;;
21339;SDS011;10828;47.064;15.422;2023-10-13T13:40:58;9.30;;;3.35;;
21339;SDS011;10828;47.064;15.422;2023-10-13T13:43:40;13.73;;;2.97;;
21339;SDS011;10828;47.064;15.422;2023-10-13T14:33:32;10.07;;;3.30;;
21339;SDS011;10828;47.064;15.422;2023-10-13T14:35:59;12.43;;;3.05;;
21339;SDS011;10828;47.064;15.422;2023-10-13T14:38:28;18.98;;;3.20;;
21339;SDS011;10828;47.064;15.422;2023-10-13T14:40:58;12.20;;;2.90;;
21339;SDS011;10828;47.064;15.422;2023-10-13T14:43:25;12.98;;;3.50;;
21339;SDS011;10828;47.064;15.422;2023-10-13T14:45:53;10.50;;;3.60;;
21339;SDS011;10828;47.064;15.422;2023-10-13T14:48:28;11.38;;;3.00;;
21339;SDS011;10828;47.064;15.422;2023-10-13T14:50:57;10.63;;;3.67;;
21339;SDS011;10828;47.064;15.422;2023-10-13T14:53:24;11.77;;;4.40;;
21339;SDS011;10828;47.064;15.422;2023-10-13T14:55:53;10.98;;;3.50;;
21339;SDS011;10828;47.064;15.422;2023-10-13T14:58:21;14.10;;;3.72;;
21339;SDS011;10828;47.064;15.422;2023-10-13T15:00:57;11.13;;;3.38;;
21339;SDS011;10828;47.064;15.422;2023-10-13T15:03:25;13.30;;;3.30;;
21339;SDS011;10828;47.064;15.422;2023-10-13T15:05:54;10.05;;;3.70;;
21339;SDS011;10828;47.064;15.422;2023-10-13T15:08:22;14.35;;;3.22;;
21339;SDS011;10828;47.064;15.422;2023-10-13T15:10:49;10.10;;;3.33;;
21339;SDS011;10828;47.064;15.422;2023-10-13T15:13:24;10.43;;;3.50;;
21339;SDS011;10828;47.064;15.422;2023-10-13T15:15:53;10.20;;;3.45;;
21339;SDS011;10828;47.064;15.422;2023-10-13T15:18:29;9.52;;;3.42;;
21339;SDS011;10828;47.064;15.422;2023-10-13T15:21:06;10.73;;;3.75;;
21339;SDS011;10828;47.064;15.422;2023-10-13T15:23:34;16.90;;;3.92;;
21339;SDS011;10828;47.064;15.422;2023-10-13T15:26:09;13.15;;;4.10;;
21339;SDS011;10828;47.064;15.422;2023-10-13T15:28:40;14.20;;;3.30;;
21339;SDS011;10828;47.064;15.422;2023-10-13T15:31:21;9.75;;;3.50;;
21339;SDS011;10828;47.064;15.422;2023-10-13T15:34:11;12.35;;;3.90;;
21339;SDS011;10828;47.064;15.422;2023-10-13T15:36:43;10.38;;;3.65;;
21339;SDS011;10828;47.064;15.422;2023-10-13T15:39:15;10.63;;;3.50;;
21339;SDS011;10828;47.064;15.422;2023-10-13T15:41:42;14.07;;;4.85;;
21339;SDS011;10828;47.064;15.422;2023-10-13T15:44:14;12.95;;;4.25;;
21339;SDS011;10828;47.064;15.422;2023-10-13T15:46:42;13.95;;;4.55;;
21339;SDS011;10828;47.064;15.422;2023-10-13T15:49:12;16.92;;;4.70;;
21339;SDS011;10828;47.064;15.422;2023-10-13T15:51:46;17.37;;;4.90;;
21339;SDS011;10828;47.064;15.422;2023-10-13T15:54:16;17.80;;;4.80;;
21339;SDS011;10828;47.064;15.422;2023-10-13T15:56:49;11.73;;;4.35;;
21339;SDS011;10828;47.064;15.422;2023-10-13T15:59:20;13.80;;;4.40;;
21339;SDS011;10828;47.064;15.422;2023-10-13T16:01:48;15.43;;;4.38;;
21339;SDS011;10828;47.064;15.422;2023-10-13T16:04:16;17.40;;;4.43;;
21339;SDS011;10828;47.064;15.422;2023-10-13T16:06:45;18.75;;;4.78;;
21339;SDS011;10828;47.064;15.422;2023-10-13T16:09:14;20.63;;;5.70;;
21339;SDS011;10828;47.064;15.422;2023-10-13T16:11:48;19.40;;;4.90;;
21339;SDS011;10828;47.064;15.422;2023-10-13T16:16:49;21.00;;;5.23;;
21339;SDS011;10828;47.064;15.422;2023-10-13T16:19:21;16.87;;;4.63;;
21339;SDS011;10828;47.064;15.422;2023-10-13T16:21:50;15.80;;;4.47;;
21339;SDS011;10828;47.064;15.422;2023-10-13T16:24:21;23.33;;;5.17;;
21339;SDS011;10828;47.064;15.422;2023-10-13T16:26:51;17.43;;;4.87;;
21339;SDS011;10828;47.064;15.422;2023-10-13T16:29:21;17.03;;;5.10;;
21339;SDS011;10828;47.064;15.422;2023-10-13T16:31:47;20.23;;;4.97;;
21339;SDS011;10828;47.064;15.422;2023-10-13T16:34:24;11.73;;;4.63;;
21339;SDS011;10828;47.064;15.422;2023-10-13T16:36:54;13.73;;;5.17;;
21339;SDS011;10828;47.064;15.422;2023-10-13T16:39:23;18.45;;;5.45;;
21339;SDS011;10828;47.064;15.422;2023-10-13T16:41:55;15.77;;;4.87;;
21339;SDS011;10828;47.064;15.422;2023-10-13T16:44:27;18.17;;;5.80;;
21339;SDS011;10828;47.064;15.422;2023-10-13T16:46:54;17.00;;;4.80;;
21339;SDS011;10828;47.064;15.422;2023-10-13T16:49:31;16.27;;;5.40;;
21339;SDS011;10828;47.064;15.422;2023-10-13T16:51:58;18.70;;;5.93;;
21339;SDS011;10828;47.064;15.422;2023-10-13T16:54:35;20.37;;;6.37;;
21339;SDS011;10828;47.064;15.422;2023-10-13T16:57:02;15.83;;;6.27;;
21339;SDS011;10828;47.064;15.422;2023-10-13T16:59:33;12.97;;;5.53;;
21339;SDS011;10828;47.064;15.422;2023-10-13T17:02:01;15.43;;;6.03;;
21339;SDS011;10828;47.064;15.422;2023-10-13T17:04:32;15.53;;;6.20;;
21339;SDS011;10828;47.064;15.422;2023-10-13T17:07:04;13.43;;;5.50;;
21339;SDS011;10828;47.064;15.422;2023-10-13T17:09:32;14.80;;;5.57;;
21339;SDS011;10828;47.064;15.422;2023-10-13T17:12:00;12.20;;;5.60;;
21339;SDS011;10828;47.064;15.422;2023-10-13T17:14:28;15.47;;;6.40;;
21339;SDS011;10828;47.064;15.422;2023-10-13T17:16:56;18.47;;;5.87;;
21339;SDS011;10828;47.064;15.422;2023-10-13T17:19:23;20.03;;;5.97;;
21339;SDS011;10828;47.064;15.422;2023-10-13T17:21:51;14.93;;;5.80;;
21339;SDS011;10828;47.064;15.422;2023-10-13T17:24:17;12.10;;;5.23;;
21339;SDS011;10828;47.064;15.422;2023-10-13T17:26:48;12.53;;;5.33;;
21339;SDS011;10828;47.064;15.422;2023-10-13T17:29:20;17.23;;;5.57;;
21339;SDS011;10828;47.064;15.422;2023-10-13T17:31:48;20.30;;;6.40;;
21339;SDS011;10828;47.064;15.422;2023-10-13T17:34:15;12.67;;;5.27;;
21339;SDS011;10828;47.064;15.422;2023-10-13T17:36:45;15.87;;;5.70;;
21339;SDS011;10828;47.064;15.422;2023-10-13T17:39:16;16.20;;;6.10;;
21339;SDS011;10828;47.064;15.422;2023-10-13T17:44:17;14.33;;;5.10;;
21339;SDS011;10828;47.064;15.422;2023-10-13T17:46:43;15.43;;;5.50;;
21339;SDS011;10828;47.064;15.422;2023-10-13T17:49:10;18.10;;;5.93;;
21339;SDS011;10828;47.064;15.422;2023-10-13T17:51:46;18.47;;;5.70;;
21339;SDS011;10828;47.064;15.422;2023-10-13T17:54:13;17.73;;;6.60;;
21339;SDS011;10828;47.064;15.422;2023-10-13T17:56:46;15.43;;;6.43;;
21339;SDS011;10828;47.064;15.422;2023-10-13T17:59:12;15.60;;;6.40;;
21339;SDS011;10828;47.064;15.422;2023-10-13T18:01:40;12.40;;;5.73;;
21339;SDS011;10828;47.064;15.422;2023-10-13T18:04:07;15.93;;;5.47;;
21339;SDS011;10828;47.064;15.422;2023-10-13T18:06:35;15.53;;;6.17;;
21339;SDS011;10828;47.064;15.422;2023-10-13T18:09:04;16.80;;;5.77;;
21339;SDS011;10828;47.064;15.422;2023-10-13T18:11:36;12.93;;;5.63;;
21339;SDS011;10828;47.064;15.422;2023-10-13T18:14:03;22.03;;;6.60;;
21339;SDS011;10828;47.064;15.422;2023-10-13T18:16:31;21.40;;;6.17;;
21339;SDS011;10828;47.064;15.422;2023-10-13T18:18:57;17.67;;;5.53;;
21339;SDS011;10828;47.064;15.422;2023-10-13T18:21:24;16.70;;;5.80;;
21339;SDS011;10828;47.064;15.422;2023-10-13T18:23:51;16.53;;;6.03;;
21339;SDS011;10828;47.064;15.422;2023-10-13T18:26:20;17.17;;;6.13;;
21339;SDS011;10828;47.064;15.422;2023-10-13T18:28:49;14.67;;;5.83;;
21339;SDS011;10828;47.064;15.422;2023-10-13T18:31:23;17.07;;;5.87;;
21339;SDS011;10828;47.064;15.422;2023-10-13T18:33:51;16.63;;;5.87;;
21339;SDS011;10828;47.064;15.422;2023-10-13T18:36:25;17.80;;;5.70;;
21339;SDS011;10828;47.064;15.422;2023-10-13T18:38:57;19.13;;;6.60;;
21339;SDS011;10828;47.064;15.422;2023-10-13T18:41:27;16.30;;;5.83;;
21339;SDS011;10828;47.064;15.422;2023-10-13T18:44:03;16.93;;;6.07;;
21339;SDS011;10828;47.064;15.422;2023-10-13T18:46:36;14.93;;;5.80;;
21339;SDS011;10828;47.064;15.422;2023-10-13T18:49:05;17.67;;;6.23;;
21339;SDS011;10828;47.064;15.422;2023-10-13T18:51:33;14.43;;;5.83;;
21339;SDS011;10828;47.064;15.422;2023-10-13T18:54:03;17.03;;;6.60;;
21339;SDS011;10828;47.064;15.422;2023-10-13T18:56:32;16.53;;;6.17;;
21339;SDS011;10828;47.064;15.422;2023-10-13T18:59:00;18.80;;;6.50;;
21339;SDS011;10828;47.064;15.422;2023-10-13T19:01:30;11.43;;;5.63;;
21339;SDS011;10828;47.064;15.422;2023-10-13T19:04:00;19.77;;;6.23;;
21339;SDS011;10828;47.064;15.422;2023-10-13T19:06:28;20.17;;;6.30;;
21339;SDS011;10828;47.064;15.422;2023-10-13T19:09:08;19.30;;;6.97;;
21339;SDS011;10828;47.064;15.422;2023-10-13T19:11:37;19.03;;;7.07;;